Time;durP1;ratioP1;P1;durP2;ratioP2;P2;SDS_P1;SDS_P2;PMS_P1;PMS_P2;Temp;Humidity;BMP_temperature;BMP_pressure;BME280_temperature;BME280_humidity;BME280_pressure;Samples;Min_cycle;Max_cycle;Signal;HPM_P1;HPM_P2
2022/08/19 00:01:50;;;;;;;16.58;8.13;;;15.20;99.90;;;;;;5052214;28;20413;-42
2022/08/19 00:04:18;;;;;;;8.93;6.20;;;14.00;99.90;;;;;;5052144;28;20071;-42
2022/08/19 00:06:45;;;;;;;9.35;6.28;;;14.50;99.90;;;;;;5053472;28;20778;-46
2022/08/19 00:09:14;;;;;;;8.23;5.40;;;13.90;99.90;;;;;;5052035;28;20098;-45
2022/08/19 00:11:40;;;;;;;10.73;5.90;;;14.20;99.90;;;;;;5051299;28;20040;-41
2022/08/19 00:14:09;;;;;;;7.57;5.53;;;14.40;99.90;;;;;;5054785;28;20500;-43
2022/08/19 00:16:36;;;;;;;11.23;7.00;;;13.60;99.90;;;;;;5051836;28;20028;-41
2022/08/19 00:19:03;;;;;;;10.75;6.32;;;13.80;99.90;;;;;;5053413;28;20124;-40
2022/08/19 00:21:28;;;;;;;16.17;7.25;;;14.00;99.90;;;;;;5050169;28;20297;-39
2022/08/19 00:23:59;;;;;;;7.13;5.72;;;13.70;99.90;;;;;;5053068;28;20036;-39
2022/08/19 00:26:26;;;;;;;7.33;5.70;;;13.70;99.90;;;;;;5054555;28;20053;-41
2022/08/19 00:28:52;;;;;;;8.27;5.53;;;13.70;99.90;;;;;;5057119;28;20040;-39
2022/08/19 00:31:18;;;;;;;7.75;5.68;;;13.70;99.90;;;;;;5058131;28;20094;-39
2022/08/19 00:33:44;;;;;;;7.60;5.00;;;15.10;99.90;;;;;;5057706;28;20032;-39
2022/08/19 00:36:10;;;;;;;7.63;4.72;;;13.70;99.90;;;;;;5057682;28;20043;-40
2022/08/19 00:38:40;;;;;;;7.70;5.30;;;13.50;99.90;;;;;;5057335;28;20036;-40
2022/08/19 00:41:06;;;;;;;8.48;5.07;;;13.80;99.90;;;;;;5057722;28;20028;-40
2022/08/19 00:43:32;;;;;;;7.82;5.22;;;13.40;99.90;;;;;;5054537;28;20053;-40
2022/08/19 00:45:59;;;;;;;7.22;5.70;;;13.40;99.90;;;;;;5055708;28;20120;-40
2022/08/19 00:48:24;;;;;;;8.13;5.63;;;15.30;99.90;;;;;;5055976;28;20033;-40
2022/08/19 00:50:55;;;;;;;7.35;5.72;;;15.40;99.90;;;;;;5055815;28;20036;-40
2022/08/19 00:53:28;;;;;;;8.30;6.13;;;13.40;99.90;;;;;;5055682;28;20037;-39
2022/08/19 00:55:57;;;;;;;10.98;7.55;;;13.10;99.90;;;;;;5055775;28;20055;-39
2022/08/19 00:58:28;;;;;;;9.15;6.97;;;14.40;99.90;;;;;;5054517;28;22133;-40
2022/08/19 01:00:54;;;;;;;12.93;7.90;;;13.40;99.90;;;;;;5056344;28;20570;-40
2022/08/19 01:03:21;;;;;;;11.88;7.68;;;13.20;99.90;;;;;;5054669;28;20516;-39
2022/08/19 01:05:50;;;;;;;9.73;6.00;;;13.10;99.90;;;;;;5055224;28;20739;-39
2022/08/19 01:08:18;;;;;;;9.10;6.78;;;14.10;99.90;;;;;;5054933;28;20516;-39
2022/08/19 01:10:51;;;;;;;8.07;5.80;;;15.30;99.90;;;;;;5055374;28;20040;-39
2022/08/19 01:13:20;;;;;;;6.85;5.05;;;13.10;99.90;;;;;;5055478;28;20044;-39
2022/08/19 01:15:51;;;;;;;5.82;3.88;;;12.70;99.90;;;;;;5056054;28;20318;-40
2022/08/19 01:18:21;;;;;;;6.93;4.20;;;13.80;99.90;;;;;;5055242;28;20605;-40
2022/08/19 01:20:47;;;;;;;7.82;5.18;;;13.30;99.90;;;;;;5054329;28;20049;-39
2022/08/19 01:23:14;;;;;;;7.60;5.10;;;12.70;99.90;;;;;;5054421;28;20032;-40
2022/08/19 01:25:49;;;;;;;6.22;5.00;;;12.90;99.90;;;;;;5054190;28;20033;-40
2022/08/19 01:28:26;;;;;;;9.23;6.43;;;12.80;99.90;;;;;;5055719;28;20048;-39
2022/08/19 01:30:53;;;;;;;8.15;5.03;;;12.70;99.90;;;;;;5055338;28;20028;-40
2022/08/19 01:33:20;;;;;;;7.63;4.60;;;13.90;99.90;;;;;;5054484;28;20049;-40
2022/08/19 01:35:50;;;;;;;7.32;4.80;;;13.90;99.90;;;;;;5057926;28;20037;-41
2022/08/19 01:38:23;;;;;;;6.10;3.80;;;12.50;99.90;;;;;;5054997;28;20419;-40
2022/08/19 01:40:49;;;;;;;6.57;4.05;;;12.60;99.90;;;;;;5056214;28;20531;-40
2022/08/19 01:43:15;;;;;;;7.47;3.58;;;12.60;99.90;;;;;;5055517;28;20037;-42
2022/08/19 01:45:41;;;;;;;6.25;3.20;;;14.50;99.90;;;;;;5052786;28;20049;-41
2022/08/19 01:48:08;;;;;;;5.40;3.35;;;12.70;99.90;;;;;;5055524;28;20052;-40
2022/08/19 01:50:34;;;;;;;8.70;5.25;;;12.60;99.90;;;;;;5054505;28;20040;-40
2022/08/19 01:53:03;;;;;;;10.00;4.45;;;13.40;99.90;;;;;;5054989;28;20484;-41
2022/08/19 01:55:29;;;;;;;5.88;4.22;;;13.40;99.90;;;;;;5055466;28;20040;-41
2022/08/19 01:57:59;;;;;;;8.57;5.40;;;12.50;99.90;;;;;;5054645;28;20039;-40
2022/08/19 02:00:29;;;;;;;6.47;4.22;;;13.20;99.90;;;;;;5053500;28;20052;-40
2022/08/19 02:02:56;;;;;;;7.00;4.45;;;13.80;99.90;;;;;;5054574;28;20067;-40
2022/08/19 02:05:22;;;;;;;6.10;4.43;;;12.90;99.90;;;;;;5054269;28;20126;-41
2022/08/19 02:07:48;;;;;;;7.40;5.00;;;12.40;99.90;;;;;;5054565;28;20045;-41
2022/08/19 02:10:18;;;;;;;7.07;4.97;;;13.60;99.90;;;;;;5054253;28;20128;-40
2022/08/19 02:12:44;;;;;;;7.72;4.70;;;12.40;99.90;;;;;;5053900;28;20055;-40
2022/08/19 02:15:11;;;;;;;7.70;3.75;;;12.60;99.90;;;;;;5052879;28;20032;-40
2022/08/19 02:17:40;;;;;;;6.13;4.20;;;13.50;99.90;;;;;;5054534;28;20040;-40
2022/08/19 02:20:07;;;;;;;7.65;5.10;;;12.50;99.90;;;;;;5055809;28;20095;-40
2022/08/19 02:22:33;;;;;;;8.82;5.40;;;12.40;99.90;;;;;;5053818;28;20044;-40
2022/08/19 02:25:01;;;;;;;11.73;6.63;;;12.30;99.90;;;;;;5053869;28;20444;-40
2022/08/19 02:27:27;;;;;;;9.98;6.03;;;12.30;99.90;;;;;;5053176;28;20182;-40
2022/08/19 02:29:53;;;;;;;12.80;7.60;;;12.50;99.90;;;;;;5054366;28;20124;-40
2022/08/19 02:32:22;;;;;;;10.23;6.13;;;13.50;99.90;;;;;;5054261;28;20045;-39
2022/08/19 02:34:47;;;;;;;7.88;5.65;;;12.60;99.90;;;;;;5054502;28;20040;-40
2022/08/19 02:39:58;;;;;;;8.40;5.95;;;13.70;99.90;;;;;;5053030;28;20047;-40
2022/08/19 02:42:24;;;;;;;10.63;6.05;;;12.30;99.90;;;;;;5053819;28;20044;-40
2022/08/19 02:44:51;;;;;;;10.43;7.00;;;12.40;99.90;;;;;;5052988;28;20033;-40
2022/08/19 02:47:18;;;;;;;11.90;7.00;;;13.60;99.90;;;;;;5053888;28;20522;-40
2022/08/19 02:49:45;;;;;;;10.75;6.70;;;12.70;99.90;;;;;;5052789;28;20040;-40
2022/08/19 02:52:11;;;;;;;8.90;7.00;;;14.50;99.90;;;;;;5055166;28;20046;-40
2022/08/19 02:54:38;;;;;;;8.00;5.47;;;12.40;99.90;;;;;;5053458;28;20071;-40
2022/08/19 02:57:06;;;;;;;10.77;5.25;;;12.40;99.90;;;;;;5053268;28;20043;-40
2022/08/19 02:59:32;;;;;;;11.05;5.20;;;12.20;99.90;;;;;;5052423;28;20048;-40
2022/08/19 03:01:58;;;;;;;13.55;5.65;;;12.70;99.90;;;;;;5054669;28;20524;-41
2022/08/19 03:04:25;;;;;;;10.90;6.68;;;13.00;99.90;;;;;;5054602;28;20039;-40
2022/08/19 03:06:51;;;;;;;8.45;5.90;;;12.20;99.90;;;;;;5054640;28;20416;-40
2022/08/19 03:09:19;;;;;;;8.30;6.50;;;12.20;99.90;;;;;;5054308;28;20037;-40
2022/08/19 03:11:45;;;;;;;11.27;6.95;;;13.20;99.90;;;;;;5054390;28;20044;-40
2022/08/19 03:14:12;;;;;;;11.32;6.80;;;12.10;99.90;;;;;;5053724;28;20040;-40
2022/08/19 03:16:47;;;;;;;9.50;7.50;;;12.20;99.90;;;;;;5054165;28;20048;-40
2022/08/19 03:19:16;;;;;;;10.38;6.82;;;12.10;99.90;;;;;;5053900;28;20048;-40
2022/08/19 03:21:44;;;;;;;10.63;6.38;;;12.80;99.90;;;;;;5052083;28;20493;-40
2022/08/19 03:24:13;;;;;;;7.63;5.38;;;13.40;99.90;;;;;;5051992;28;20461;-40
2022/08/19 03:26:44;;;;;;;7.22;4.93;;;12.00;99.90;;;;;;5052661;28;20036;-39
2022/08/19 03:29:11;;;;;;;7.93;4.18;;;12.40;99.90;;;;;;5053377;28;20041;-39
2022/08/19 03:31:39;;;;;;;7.88;4.30;;;12.70;99.90;;;;;;5050531;28;20036;-40
2022/08/19 03:34:05;;;;;;;10.15;5.32;;;12.10;99.90;;;;;;5053286;28;20456;-39
2022/08/19 03:36:31;;;;;;;11.30;4.35;;;13.20;99.90;;;;;;5053747;28;20123;-41
2022/08/19 03:38:59;;;;;;;10.63;4.93;;;12.10;99.90;;;;;;5053873;28;20044;-40
2022/08/19 03:41:31;;;;;;;89.28;6.10;;;13.40;99.90;;;;;;5052973;28;20495;-40
2022/08/19 03:43:59;;;;;;;12.73;5.13;;;11.80;99.90;;;;;;5052174;28;20067;-40
2022/08/19 03:46:28;;;;;;;8.38;4.72;;;12.30;99.90;;;;;;5051672;28;20048;-40
2022/08/19 03:48:55;;;;;;;7.95;4.32;;;12.00;99.90;;;;;;5052183;28;20489;-39
2022/08/19 03:51:24;;;;;;;7.93;4.18;;;12.00;99.90;;;;;;5049819;28;20583;-40
2022/08/19 03:53:51;;;;;;;12.43;5.95;;;12.10;99.90;;;;;;5052153;28;20055;-40
2022/08/19 03:56:17;;;;;;;9.73;5.55;;;12.50;99.90;;;;;;5052211;28;20409;-40
2022/08/19 03:58:44;;;;;;;11.02;4.97;;;11.90;99.90;;;;;;5052853;28;20138;-40
2022/08/19 04:01:12;;;;;;;9.38;5.40;;;13.90;99.90;;;;;;5052747;28;20036;-40
2022/08/19 04:03:39;;;;;;;47.35;6.60;;;12.00;99.90;;;;;;5050754;28;20504;-40
2022/08/19 04:06:31;;;;;;;22.85;5.22;;;12.10;99.90;;;;;;5052867;28;20029;-40
2022/08/19 04:09:01;;;;;;;25.58;7.53;;;11.70;99.90;;;;;;5050232;28;20051;-40
2022/08/19 04:11:35;;;;;;;11.23;6.25;;;13.10;99.90;;;;;;5048974;28;20044;-40
2022/08/19 04:14:01;;;;;;;11.07;6.97;;;12.40;99.90;;;;;;5050325;28;20168;-41
2022/08/19 04:16:30;;;;;;;11.18;6.43;;;11.90;99.90;;;;;;5050660;28;20123;-41
2022/08/19 04:18:59;;;;;;;12.80;7.47;;;11.80;99.90;;;;;;5050848;28;20047;-41
2022/08/19 04:21:27;;;;;;;11.13;6.57;;;11.90;99.90;;;;;;5050141;28;20160;-40
2022/08/19 04:23:54;;;;;;;8.85;5.95;;;12.40;99.90;;;;;;5050161;28;20037;-39
2022/08/19 04:26:23;;;;;;;9.45;5.97;;;12.80;99.90;;;;;;5050227;28;20052;-39
2022/08/19 04:28:51;;;;;;;10.65;6.22;;;12.00;99.90;;;;;;5050151;28;20498;-40
2022/08/19 04:31:25;;;;;;;10.48;7.47;;;12.10;99.90;;;;;;5050801;28;20041;-40
2022/08/19 04:33:54;;;;;;;10.77;6.93;;;11.90;99.90;;;;;;5050214;28;20052;-40
2022/08/19 04:36:29;;;;;;;13.75;6.35;;;12.10;99.90;;;;;;5050918;28;20186;-40
2022/08/19 04:38:58;;;;;;;13.43;6.57;;;12.10;99.90;;;;;;5048331;28;20763;-39
2022/08/19 04:44:09;;;;;;;9.82;6.70;;;12.00;99.90;;;;;;5048771;28;20105;-39
2022/08/19 04:46:35;;;;;;;7.80;5.03;;;12.10;99.90;;;;;;5050892;28;20520;-39
2022/08/19 04:49:04;;;;;;;17.45;6.30;;;12.10;99.90;;;;;;5052084;28;20070;-39
2022/08/19 04:51:33;;;;;;;26.10;7.28;;;11.70;99.90;;;;;;5051480;28;20140;-40
2022/08/19 04:54:00;;;;;;;9.85;6.57;;;12.00;99.90;;;;;;5052900;28;20037;-39
2022/08/19 04:56:26;;;;;;;13.05;7.75;;;13.30;99.90;;;;;;5051190;28;20036;-40
2022/08/19 04:58:55;;;;;;;11.25;7.30;;;13.10;99.90;;;;;;5051390;28;20348;-40
2022/08/19 05:01:23;;;;;;;12.60;8.40;;;12.20;99.90;;;;;;5051330;28;20079;-39
2022/08/19 05:03:50;;;;;;;12.40;8.32;;;13.00;99.90;;;;;;5051788;28;20052;-39
2022/08/19 05:06:17;;;;;;;13.35;8.13;;;12.20;99.90;;;;;;5051985;28;20119;-39
2022/08/19 05:08:44;;;;;;;9.88;7.45;;;12.80;99.90;;;;;;5052598;28;20405;-39
2022/08/19 05:11:13;;;;;;;10.75;7.05;;;12.40;99.90;;;;;;5051350;28;20078;-40
2022/08/19 05:13:42;;;;;;;15.95;7.07;;;12.50;99.90;;;;;;5050391;28;20405;-39
2022/08/19 05:16:09;;;;;;;10.20;7.47;;;12.90;99.90;;;;;;5054372;28;20067;-39
2022/08/19 05:24:09;;;;;;;20.77;12.18;;;12.80;99.90;;;;;;5053138;28;20062;-40
2022/08/19 05:26:37;;;;;;;18.83;11.60;;;12.60;99.90;;;;;;5053590;28;20037;-41
2022/08/19 05:29:04;;;;;;;26.63;14.65;;;12.80;99.90;;;;;;5055391;28;20048;-40
2022/08/19 05:31:30;;;;;;;20.35;13.25;;;13.10;99.90;;;;;;5055623;28;20408;-39
2022/08/19 05:33:58;;;;;;;23.52;12.88;;;13.10;99.90;;;;;;5055174;28;20477;-40
2022/08/19 05:36:28;;;;;;;27.92;15.73;;;13.30;99.90;;;;;;5050389;28;20113;-41
2022/08/19 05:38:54;;;;;;;21.17;14.40;;;13.40;99.90;;;;;;5056590;28;20044;-42
2022/08/19 05:41:29;;;;;;;26.67;15.45;;;14.70;99.90;;;;;;5054480;28;20135;-40
2022/08/19 05:43:55;;;;;;;28.25;17.27;;;13.80;99.90;;;;;;5054996;28;20068;-41
2022/08/19 05:46:22;;;;;;;31.58;18.08;;;15.50;99.90;;;;;;5055209;28;20527;-41
2022/08/19 05:48:48;;;;;;;29.35;17.45;;;15.60;99.90;;;;;;5054914;28;20110;-42
2022/08/19 05:51:14;;;;;;;26.50;17.70;;;14.90;99.90;;;;;;5055509;28;20515;-40
2022/08/19 05:53:39;;;;;;;26.83;17.13;;;15.40;99.90;;;;;;5054567;28;20053;-42
2022/08/19 05:56:11;;;;;;;23.75;16.35;;;14.60;99.90;;;;;;5054895;28;20049;-40
2022/08/19 05:58:37;;;;;;;22.88;13.85;;;14.60;99.90;;;;;;5054052;28;20680;-39
2022/08/19 06:01:09;;;;;;;25.83;16.42;;;15.20;99.90;;;;;;5053913;28;20048;-40
2022/08/19 06:03:37;;;;;;;;;;;15.20;99.90;;;;;;5054387;28;20205;-42
2022/08/19 06:06:04;;;;;;;24.55;15.88;;;15.70;99.90;;;;;;5052656;28;19925;-40
2022/08/19 06:08:33;;;;;;;16.20;13.23;;;15.80;99.90;;;;;;5053430;28;20064;-43
2022/08/19 06:11:14;;;;;;;16.05;12.95;;;16.20;99.90;;;;;;5051679;28;20719;-40
2022/08/19 06:13:42;;;;;;;19.20;12.77;;;17.10;99.90;;;;;;5052499;28;20089;-40
2022/08/19 06:16:08;;;;;;;13.63;11.30;;;18.40;99.90;;;;;;5052809;28;20044;-40
2022/08/19 06:18:34;;;;;;;14.73;11.50;;;19.30;99.90;;;;;;5052244;28;20059;-41
2022/08/19 06:21:04;;;;;;;13.68;11.02;;;19.40;99.90;;;;;;5052867;28;20051;-41
2022/08/19 06:23:30;;;;;;;11.02;8.98;;;19.60;99.90;;;;;;5052762;28;20053;-41
2022/08/19 06:25:56;;;;;;;14.32;11.30;;;19.50;99.90;;;;;;5053664;28;20094;-40
2022/08/19 06:28:23;;;;;;;15.13;10.23;;;19.40;99.90;;;;;;5052867;28;20044;-41
2022/08/19 06:30:51;;;;;;;12.40;10.57;;;19.40;99.90;;;;;;5047049;28;20421;-39
2022/08/19 06:33:16;;;;;;;13.05;10.45;;;21.40;99.90;;;;;;5053896;28;20436;-40
2022/08/19 06:35:46;;;;;;;13.38;10.00;;;19.10;99.90;;;;;;5053200;28;20041;-41
2022/08/19 06:38:12;;;;;;;15.13;11.20;;;19.40;99.90;;;;;;5053203;28;20041;-40
2022/08/19 06:40:38;;;;;;;17.77;11.63;;;19.60;99.90;;;;;;5051713;28;20148;-41
2022/08/19 06:43:05;;;;;;;11.00;7.80;;;21.50;99.90;;;;;;5053475;28;20040;-42
2022/08/19 06:45:31;;;;;;;15.30;11.15;;;21.80;99.90;;;;;;5053836;28;20044;-41
2022/08/19 06:47:57;;;;;;;13.90;10.73;;;19.70;99.90;;;;;;5053221;28;20036;-42
2022/08/19 06:50:25;;;;;;;14.20;11.40;;;21.80;99.90;;;;;;5053370;28;20052;-40
2022/08/19 06:52:51;;;;;;;14.85;9.35;;;19.60;99.90;;;;;;5053279;28;20040;-40
2022/08/19 06:55:17;;;;;;;11.55;9.02;;;20.40;99.90;;;;;;5053279;28;20032;-40
2022/08/19 06:57:45;;;;;;;14.35;9.70;;;21.40;99.90;;;;;;5052769;28;20036;-43
2022/08/19 07:00:13;;;;;;;11.40;9.55;;;22.70;99.90;;;;;;5053235;28;20048;-43
2022/08/19 07:02:43;;;;;;;10.98;8.52;;;23.60;99.90;;;;;;5053532;28;20056;-42
2022/08/19 07:05:09;;;;;;;11.13;8.75;;;24.30;99.90;;;;;;5053619;28;20041;-44
2022/08/19 07:07:35;;;;;;;31.88;14.10;;;25.40;99.90;;;;;;5053607;28;20036;-45
2022/08/19 07:10:03;;;;;;;11.90;6.93;;;26.10;99.90;;;;;;5052128;28;20044;-42
2022/08/19 07:12:33;;;;;;;14.60;8.27;;;26.40;99.90;;;;;;5051880;28;20036;-43
2022/08/19 07:15:00;;;;;;;17.63;9.33;;;26.80;99.90;;;;;;5052546;28;20076;-42
2022/08/19 07:17:26;;;;;;;13.20;7.65;;;27.20;99.90;;;;;;5051489;28;20733;-43
2022/08/19 07:19:52;;;;;;;10.23;6.85;;;27.80;99.90;;;;;;5046110;28;20047;-43
2022/08/19 07:22:24;;;;;;;11.55;7.75;;;28.30;99.90;;;;;;5050623;28;20044;-43
2022/08/19 07:24:51;;;;;;;9.57;7.47;;;28.70;99.90;;;;;;5052432;28;20040;-44
2022/08/19 07:27:16;;;;;;;16.45;8.38;;;28.80;99.90;;;;;;5053268;28;20288;-43
2022/08/19 07:29:45;;;;;;;13.65;6.65;;;29.20;99.90;;;;;;5051997;28;20424;-42
2022/08/19 07:32:11;;;;;;;8.05;6.57;;;29.40;99.90;;;;;;5053624;28;20327;-44
2022/08/19 07:34:37;;;;;;;10.35;7.00;;;29.60;99.90;;;;;;5052591;28;20079;-43
2022/08/19 07:37:05;;;;;;;12.88;6.50;;;29.60;99.90;;;;;;5052305;28;20047;-43
2022/08/19 07:39:35;;;;;;;10.18;7.07;;;29.40;99.90;;;;;;5052772;28;20118;-44
2022/08/19 07:42:03;;;;;;;10.93;7.78;;;28.80;99.90;;;;;;5051547;28;20036;-44
2022/08/19 07:44:33;;;;;;;9.82;6.63;;;28.60;99.90;;;;;;5052265;28;20037;-44
2022/08/19 07:47:00;;;;;;;8.52;6.82;;;28.10;99.90;;;;;;5051922;28;20036;-46
2022/08/19 07:49:26;;;;;;;8.50;7.03;;;27.50;99.90;;;;;;5052755;28;20051;-43
2022/08/19 07:51:55;;;;;;;8.68;5.90;;;25.70;99.90;;;;;;5051363;28;20048;-44
2022/08/19 07:54:24;;;;;;;9.43;5.75;;;26.10;99.90;;;;;;5053185;28;20036;-43
2022/08/19 07:56:50;;;;;;;9.75;6.15;;;25.70;99.90;;;;;;5052823;28;20033;-43
2022/08/19 07:59:17;;;;;;;9.95;7.10;;;25.40;99.90;;;;;;5052874;28;20048;-43
2022/08/19 08:01:44;;;;;;;9.13;7.43;;;25.00;99.90;;;;;;5053380;28;20504;-44
2022/08/19 08:09:50;;;;;;;9.57;7.22;;;23.90;99.90;;;;;;5031428;28;20041;-42
2022/08/19 08:12:25;;;;;;;8.10;6.15;;;23.70;99.90;;;;;;5030521;28;20749;-45
2022/08/19 08:14:54;;;;;;;12.05;8.32;;;23.50;99.90;;;;;;5030945;28;20045;-42
2022/08/19 08:17:23;;;;;;;10.38;7.05;;;25.50;99.90;;;;;;5029843;28;20057;-43
2022/08/19 08:19:50;;;;;;;10.35;8.70;;;23.30;99.90;;;;;;5029964;28;20056;-42
2022/08/19 08:25:16;;;;;;;13.05;9.15;;;23.00;99.90;;;;;;5029137;28;20155;-45
2022/08/19 08:27:44;;;;;;;11.95;9.52;;;23.10;99.90;;;;;;5028850;28;20551;-46
2022/08/19 08:30:14;;;;;;;11.60;8.50;;;23.10;99.90;;;;;;5012417;28;20117;-48
2022/08/19 08:32:42;;;;;;;9.07;7.15;;;23.10;99.90;;;;;;5029099;28;20053;-42
2022/08/19 08:35:11;;;;;;;10.63;9.52;;;23.10;99.90;;;;;;5028650;28;20041;-42
2022/08/19 08:37:37;;;;;;;12.48;10.32;;;23.00;99.90;;;;;;5029579;28;20087;-43
2022/08/19 08:40:16;;;;;;;12.10;10.10;;;22.70;99.90;;;;;;5028730;28;20591;-46
2022/08/19 08:42:52;;;;;;;12.30;10.80;;;22.70;99.90;;;;;;5028096;28;20048;-44
2022/08/19 08:45:20;;;;;;;10.35;8.63;;;23.90;99.90;;;;;;5031647;28;20062;-42
2022/08/19 08:47:51;;;;;;;13.77;9.50;;;22.60;99.90;;;;;;5052159;28;20047;-47
2022/08/19 08:50:27;;;;;;;;;;;22.80;99.90;;;;;;5057433;28;20098;-43
2022/08/19 08:52:56;;;;;;;14.77;11.65;;;22.70;99.90;;;;;;5055970;28;20376;-46
2022/08/19 08:55:26;;;;;;;12.35;10.65;;;22.70;99.90;;;;;;5052756;28;20512;-45
2022/08/19 08:58:00;;;;;;;14.73;12.05;;;22.70;99.90;;;;;;5055428;28;20049;-46
2022/08/19 09:00:38;;;;;;;15.98;10.85;;;22.70;99.90;;;;;;5054121;28;20045;-46
2022/08/19 09:03:12;;;;;;;15.95;10.90;;;22.50;99.90;;;;;;5055446;28;20159;-44
2022/08/19 09:06:02;;;;;;;17.52;11.82;;;22.60;99.90;;;;;;5055335;28;20036;-44
2022/08/19 09:08:36;;;;;;;25.33;13.38;;;22.50;99.90;;;;;;5056632;28;20076;-43
2022/08/19 09:11:06;;;;;;;19.15;11.90;;;22.90;99.90;;;;;;5054990;28;20040;-41
2022/08/19 09:13:58;;;;;;;13.80;12.23;;;22.80;99.90;;;;;;5053224;28;20401;-42
2022/08/19 09:16:27;;;;;;;10.77;8.30;;;22.80;99.90;;;;;;5055481;28;20036;-45
2022/08/19 09:18:57;;;;;;;12.05;10.10;;;22.70;99.90;;;;;;5056360;28;20044;-46
2022/08/19 09:21:25;;;;;;;15.27;10.98;;;22.80;99.90;;;;;;5056740;28;20033;-46
2022/08/19 09:23:52;;;;;;;16.70;10.75;;;22.80;99.90;;;;;;5056637;28;20071;-44
2022/08/19 09:26:21;;;;;;;13.32;9.57;;;23.00;99.90;;;;;;5053248;28;20087;-46
2022/08/19 09:28:50;;;;;;;15.57;11.27;;;23.00;99.90;;;;;;5055134;28;20532;-44
2022/08/19 09:31:24;;;;;;;13.70;11.52;;;23.10;99.90;;;;;;5057224;28;20418;-44
2022/08/19 09:33:51;;;;;;;13.57;10.60;;;23.10;99.90;;;;;;5056150;28;20037;-44
2022/08/19 09:36:19;;;;;;;13.57;11.82;;;24.30;99.90;;;;;;5057081;28;20523;-42
2022/08/19 09:38:45;;;;;;;13.57;11.85;;;23.40;99.90;;;;;;5057163;28;20455;-46
2022/08/19 09:41:17;;;;;;;16.13;12.73;;;23.70;99.90;;;;;;5054882;28;20163;-42
2022/08/19 09:43:45;;;;;;;14.18;11.70;;;23.90;99.90;;;;;;5054938;28;20032;-45
2022/08/19 09:46:12;;;;;;;13.63;11.10;;;23.90;99.90;;;;;;5055368;28;20071;-44
2022/08/19 09:48:41;;;;;;;14.70;11.13;;;24.00;99.90;;;;;;5054856;28;20048;-44
2022/08/19 09:51:15;;;;;;;13.93;12.07;;;24.20;99.90;;;;;;5054619;28;20056;-47
2022/08/19 09:53:44;;;;;;;13.93;12.50;;;24.20;99.90;;;;;;5054865;28;20095;-44
2022/08/19 09:56:10;;;;;;;13.77;12.32;;;25.80;99.90;;;;;;5053778;28;20593;-43
2022/08/19 09:58:37;;;;;;;14.55;11.90;;;24.50;99.90;;;;;;5053822;28;20090;-46
2022/08/19 10:01:06;;;;;;;13.98;12.55;;;24.50;99.90;;;;;;5054621;28;20036;-46
2022/08/19 10:03:33;;;;;;;14.05;12.52;;;24.80;99.90;;;;;;5054757;28;20524;-43
2022/08/19 10:06:01;;;;;;;15.05;13.20;;;25.10;99.90;;;;;;5054962;28;20083;-43
2022/08/19 10:08:31;;;;;;;17.65;14.77;;;25.20;99.90;;;;;;5053643;28;20043;-46
2022/08/19 10:10:57;;;;;;;15.63;13.27;;;25.40;99.90;;;;;;5051374;28;20599;-43
2022/08/19 10:13:27;;;;;;;13.77;11.85;;;25.60;99.90;;;;;;5052027;28;20744;-44
2022/08/19 10:15:56;;;;;;;15.30;13.55;;;25.50;99.90;;;;;;5086030;28;20048;-44
2022/08/19 10:18:23;;;;;;;15.30;12.60;;;25.50;99.90;;;;;;5052847;28;20047;-48
2022/08/19 10:20:50;;;;;;;17.50;12.45;;;25.60;99.90;;;;;;5053179;28;20135;-44
2022/08/19 10:23:20;;;;;;;17.15;15.35;;;25.60;99.90;;;;;;5054681;28;20047;-48
2022/08/19 10:25:45;;;;;;;14.43;12.88;;;25.40;99.90;;;;;;5054653;28;20162;-46
2022/08/19 10:28:11;;;;;;;15.80;13.98;;;25.60;99.90;;;;;;5053012;28;20117;-45
2022/08/19 10:30:39;;;;;;;17.38;14.45;;;25.90;99.90;;;;;;5052064;28;20548;-46
2022/08/19 10:33:06;;;;;;;15.85;14.27;;;25.70;99.90;;;;;;5050392;28;21207;-44
2022/08/19 10:35:31;;;;;;;15.90;14.20;;;25.70;99.90;;;;;;5052682;28;20097;-45
2022/08/19 10:46:01;;;;;;;18.15;14.38;;;26.70;99.90;;;;;;5112155;27;1440071;-85
2022/08/19 10:48:28;;;;;;;16.92;15.05;;;26.90;99.90;;;;;;5111172;27;20038;-87
2022/08/19 11:17:25;;;;;;;12.10;10.77;;;28.00;99.90;;;;;;5124944;27;20445;-86
2022/08/19 11:19:51;;;;;;;14.43;11.00;;;27.60;99.90;;;;;;5100380;27;20091;-85
2022/08/19 11:22:20;;;;;;;12.63;11.13;;;27.80;99.90;;;;;;5098514;27;20035;-85
2022/08/19 11:24:50;;;;;;;12.68;10.68;;;30.30;99.90;;;;;;5120641;27;20043;-84
2022/08/19 11:27:24;;;;;;;12.65;10.20;;;27.50;99.90;;;;;;5100832;27;20077;-85
2022/08/19 11:29:52;;;;;;;15.77;11.20;;;27.20;99.90;;;;;;5081222;27;20035;-84
2022/08/19 11:36:26;;;;;;;12.75;9.45;;;26.40;99.90;;;;;;5119731;27;19984;-84
2022/08/19 11:39:01;;;;;;;11.65;8.80;;;28.80;99.90;;;;;;4993459;28;20050;-85
2022/08/19 11:45:08;;;;;;;15.32;11.85;;;29.60;99.90;;;;;;4976272;28;20046;-86
2022/08/19 11:47:52;;;;;;;15.27;11.63;;;28.00;99.90;;;;;;4955438;28;20069;-85
2022/08/19 11:50:45;;;;;;;11.10;9.05;;;28.60;99.90;;;;;;4951532;28;20599;-85
2022/08/19 11:53:14;;;;;;;12.63;8.90;;;27.60;99.90;;;;;;4933627;28;20467;-84
2022/08/19 11:55:48;;;;;;;12.18;9.27;;;28.20;99.90;;;;;;4936026;28;20113;-88
2022/08/19 11:58:18;;;;;;;12.93;8.48;;;27.50;99.90;;;;;;4938125;28;20137;-82
2022/08/19 12:00:45;;;;;;;11.68;9.50;;;27.20;99.90;;;;;;4937300;28;20508;-80
2022/08/19 12:03:12;;;;;;;12.75;9.40;;;27.10;99.90;;;;;;4933352;28;20501;-82
2022/08/19 12:05:39;;;;;;;10.93;9.00;;;26.80;99.90;;;;;;4958077;28;20154;-82
2022/08/19 12:08:07;;;;;;;12.43;9.27;;;26.80;99.90;;;;;;4937612;28;20055;-81
2022/08/19 12:10:34;;;;;;;13.90;9.88;;;26.40;99.90;;;;;;5001077;28;20037;-81
2022/08/19 12:13:00;;;;;;;10.50;8.88;;;26.00;99.90;;;;;;5029915;28;20179;-80
2022/08/19 12:15:30;;;;;;;16.73;9.57;;;25.90;99.90;;;;;;5036076;28;20451;-81
2022/08/19 12:17:57;;;;;;;14.80;9.68;;;25.90;99.90;;;;;;5024041;28;20049;-81
2022/08/19 12:20:23;;;;;;;18.50;10.45;;;26.00;99.90;;;;;;5024358;28;20425;-81
2022/08/19 12:22:51;;;;;;;79.65;19.17;;;25.40;99.90;;;;;;5022400;28;20511;-81
2022/08/19 12:25:17;;;;;;;68.05;16.45;;;25.30;99.90;;;;;;5033152;28;20501;-83
2022/08/19 12:27:43;;;;;;;187.25;29.60;;;25.10;99.90;;;;;;5070601;28;20051;-85
2022/08/19 12:30:13;;;;;;;58.63;14.52;;;25.20;99.90;;;;;;5117307;27;20043;-82
2022/08/19 12:32:45;;;;;;;33.92;14.63;;;24.80;99.90;;;;;;5079245;27;21424;-83
2022/08/19 12:35:12;;;;;;;73.13;17.25;;;25.20;99.90;;;;;;5100535;27;20046;-86
2022/08/19 12:37:38;;;;;;;18.48;14.95;;;24.80;99.90;;;;;;5100536;28;20031;-85
2022/08/19 12:40:05;;;;;;;24.08;15.35;;;24.50;99.90;;;;;;5094505;27;20095;-84
2022/08/19 12:42:30;;;;;;;28.90;15.13;;;24.80;99.90;;;;;;5111137;27;20027;-84
2022/08/19 12:44:59;;;;;;;21.08;14.68;;;25.60;99.90;;;;;;5111104;27;20036;-85
2022/08/19 12:47:26;;;;;;;23.45;14.98;;;24.30;99.90;;;;;;5111735;27;20114;-84
2022/08/19 12:49:52;;;;;;;20.20;15.75;;;25.00;99.90;;;;;;5096494;27;20024;-84
2022/08/19 12:52:20;;;;;;;27.23;16.75;;;24.80;99.90;;;;;;5108551;28;20073;-85
2022/08/19 12:54:46;;;;;;;21.23;15.55;;;24.70;99.90;;;;;;5122945;27;20075;-88
2022/08/19 12:57:12;;;;;;;22.48;10.18;;;24.70;99.90;;;;;;5118269;27;20031;-85
2022/08/19 12:59:41;;;;;;;14.25;9.55;;;24.70;99.90;;;;;;5105435;28;20027;-82
2022/08/19 13:02:07;;;;;;;14.52;9.63;;;24.70;99.90;;;;;;5097144;27;20060;-85
2022/08/19 13:15:44;;;;;;;17.20;8.75;;;24.90;99.90;;;;;;5096696;22;20422;-50
2022/08/19 13:42:00;;;;;;;24.85;15.20;;;23.40;99.90;;;;;;3383387;26;20036;-49
2022/08/19 13:44:29;;;;;;;20.52;14.70;;;23.60;99.90;;;;;;5065561;28;20067;-48
2022/08/19 13:47:00;;;;;;;21.38;15.50;;;23.50;99.90;;;;;;5062516;28;20049;-49
2022/08/19 13:49:30;;;;;;;20.90;14.98;;;23.80;99.90;;;;;;5067997;28;20201;-46
2022/08/19 13:51:56;;;;;;;22.98;15.18;;;23.90;99.90;;;;;;5067405;28;20051;-48
2022/08/19 13:54:21;;;;;;;20.13;12.18;;;24.30;99.90;;;;;;5067709;28;20044;-46
2022/08/19 13:57:13;;;;;;;20.15;12.75;;;24.20;99.90;;;;;;5069444;28;20043;-46
2022/08/19 13:59:39;;;;;;;14.95;8.57;;;24.30;99.90;;;;;;5065466;28;20043;-50
2022/08/19 14:02:05;;;;;;;12.15;9.30;;;24.40;99.90;;;;;;5065043;28;20225;-49
2022/08/19 14:04:31;;;;;;;23.80;10.48;;;24.30;99.90;;;;;;5071499;28;20212;-47
2022/08/19 14:06:56;;;;;;;16.75;9.93;;;24.30;99.90;;;;;;5068943;28;20380;-48
2022/08/19 14:09:22;;;;;;;16.63;10.80;;;24.40;99.90;;;;;;5066795;28;20557;-48
2022/08/19 14:11:50;;;;;;;14.70;11.75;;;24.20;99.90;;;;;;5065601;28;20766;-47
2022/08/19 14:14:15;;;;;;;22.98;14.38;;;24.30;99.90;;;;;;5067062;28;20040;-47
2022/08/19 14:16:42;;;;;;;21.70;15.80;;;24.10;99.90;;;;;;5067527;28;20075;-47
2022/08/19 14:19:08;;;;;;;18.63;14.77;;;24.20;99.90;;;;;;5062179;28;20045;-47